sensor_id;sensor_type;location;lat;lon;timestamp;temperature;humidity
8114;DHT22;4099;52.684;9.918;2022-09-21T00:04:16;5.30;99.90
8114;DHT22;4099;52.684;9.918;2022-09-21T00:09:20;5.10;99.90
8114;DHT22;4099;52.684;9.918;2022-09-21T00:14:22;4.90;99.90
8114;DHT22;4099;52.684;9.918;2022-09-21T00:19:24;5.00;99.90
8114;DHT22;4099;52.684;9.918;2022-09-21T00:24:27;5.10;99.90
8114;DHT22;4099;52.684;9.918;2022-09-21T00:29:28;5.20;99.90
8114;DHT22;4099;52.684;9.918;2022-09-21T00:34:30;5.10;99.90
8114;DHT22;4099;52.684;9.918;2022-09-21T00:39:33;4.90;99.90
8114;DHT22;4099;52.684;9.918;2022-09-21T00:44:35;4.70;99.90
8114;DHT22;4099;52.684;9.918;2022-09-21T00:49:38;4.70;99.90
8114;DHT22;4099;52.684;9.918;2022-09-21T00:54:44;5.00;99.90
8114;DHT22;4099;52.684;9.918;2022-09-21T00:59:49;5.20;99.90
8114;DHT22;4099;52.684;9.918;2022-09-21T01:04:53;5.50;99.90
8114;DHT22;4099;52.684;9.918;2022-09-21T01:10:00;5.70;99.90
8114;DHT22;4099;52.684;9.918;2022-09-21T01:15:13;5.40;99.90
8114;DHT22;4099;52.684;9.918;2022-09-21T01:20:33;5.50;99.90
8114;DHT22;4099;52.684;9.918;2022-09-21T01:25:47;5.50;99.90
8114;DHT22;4099;52.684;9.918;2022-09-21T01:30:59;5.60;99.90
8114;DHT22;4099;52.684;9.918;2022-09-21T01:36:08;5.60;99.90
8114;DHT22;4099;52.684;9.918;2022-09-21T01:41:12;5.50;99.90
8114;DHT22;4099;52.684;9.918;2022-09-21T01:46:19;5.60;99.90
8114;DHT22;4099;52.684;9.918;2022-09-21T01:51:25;5.70;99.90
8114;DHT22;4099;52.684;9.918;2022-09-21T01:56:31;5.70;99.90
8114;DHT22;4099;52.684;9.918;2022-09-21T02:01:42;5.80;99.90
8114;DHT22;4099;52.684;9.918;2022-09-21T02:06:46;5.90;99.90
8114;DHT22;4099;52.684;9.918;2022-09-21T02:11:49;6.10;99.90
8114;DHT22;4099;52.684;9.918;2022-09-21T02:16:56;6.10;99.90
8114;DHT22;4099;52.684;9.918;2022-09-21T02:22:05;5.80;99.90
8114;DHT22;4099;52.684;9.918;2022-09-21T02:27:17;5.80;99.90
8114;DHT22;4099;52.684;9.918;2022-09-21T02:32:27;5.80;99.90
8114;DHT22;4099;52.684;9.918;2022-09-21T02:37:36;5.70;99.90
8114;DHT22;4099;52.684;9.918;2022-09-21T02:42:42;5.40;99.90
8114;DHT22;4099;52.684;9.918;2022-09-21T02:47:49;5.30;99.90
8114;DHT22;4099;52.684;9.918;2022-09-21T02:52:53;5.30;99.90
8114;DHT22;4099;52.684;9.918;2022-09-21T02:57:56;5.50;99.90
8114;DHT22;4099;52.684;9.918;2022-09-21T03:02:59;5.50;99.90
8114;DHT22;4099;52.684;9.918;2022-09-21T03:08:01;5.70;99.90
8114;DHT22;4099;52.684;9.918;2022-09-21T03:13:03;5.90;99.90
8114;DHT22;4099;52.684;9.918;2022-09-21T03:18:07;5.70;99.90
8114;DHT22;4099;52.684;9.918;2022-09-21T03:23:11;5.60;99.90
8114;DHT22;4099;52.684;9.918;2022-09-21T03:28:13;5.30;99.90
8114;DHT22;4099;52.684;9.918;2022-09-21T03:33:16;5.40;99.90
8114;DHT22;4099;52.684;9.918;2022-09-21T03:38:19;5.40;99.90
8114;DHT22;4099;52.684;9.918;2022-09-21T03:43:21;5.30;99.90
8114;DHT22;4099;52.684;9.918;2022-09-21T03:48:24;5.00;99.90
8114;DHT22;4099;52.684;9.918;2022-09-21T03:53:25;4.90;99.90
8114;DHT22;4099;52.684;9.918;2022-09-21T03:58:27;4.80;99.90
8114;DHT22;4099;52.684;9.918;2022-09-21T04:03:30;4.90;99.90
8114;DHT22;4099;52.684;9.918;2022-09-21T04:08:32;4.80;99.90
8114;DHT22;4099;52.684;9.918;2022-09-21T04:13:33;4.70;99.90
8114;DHT22;4099;52.684;9.918;2022-09-21T04:18:37;4.60;99.90
8114;DHT22;4099;52.684;9.918;2022-09-21T04:23:39;4.60;99.90
8114;DHT22;4099;52.684;9.918;2022-09-21T04:28:41;4.60;99.90
8114;DHT22;4099;52.684;9.918;2022-09-21T04:33:47;4.60;99.90
8114;DHT22;4099;52.684;9.918;2022-09-21T04:38:49;4.50;99.90
8114;DHT22;4099;52.684;9.918;2022-09-21T04:43:51;4.80;99.90
8114;DHT22;4099;52.684;9.918;2022-09-21T04:48:54;4.70;99.90
8114;DHT22;4099;52.684;9.918;2022-09-21T04:53:56;4.90;99.90
8114;DHT22;4099;52.684;9.918;2022-09-21T04:58:58;5.00;99.90
8114;DHT22;4099;52.684;9.918;2022-09-21T05:04:02;5.00;99.90
8114;DHT22;4099;52.684;9.918;2022-09-21T05:09:04;5.20;99.90
8114;DHT22;4099;52.684;9.918;2022-09-21T05:14:23;5.20;99.90
8114;DHT22;4099;52.684;9.918;2022-09-21T05:19:26;5.20;99.90
8114;DHT22;4099;52.684;9.918;2022-09-21T05:24:27;5.10;99.90
8114;DHT22;4099;52.684;9.918;2022-09-21T05:29:30;5.20;99.90
8114;DHT22;4099;52.684;9.918;2022-09-21T05:34:44;5.40;99.90
8114;DHT22;4099;52.684;9.918;2022-09-21T05:39:49;5.40;99.90
8114;DHT22;4099;52.684;9.918;2022-09-21T05:44:52;5.40;99.90
8114;DHT22;4099;52.684;9.918;2022-09-21T05:50:02;5.30;99.90
8114;DHT22;4099;52.684;9.918;2022-09-21T05:55:17;5.50;99.90
8114;DHT22;4099;52.684;9.918;2022-09-21T06:00:25;5.50;99.90
8114;DHT22;4099;52.684;9.918;2022-09-21T06:05:28;5.80;99.90
8114;DHT22;4099;52.684;9.918;2022-09-21T06:10:33;5.90;99.90
8114;DHT22;4099;52.684;9.918;2022-09-21T06:15:35;6.00;99.90
8114;DHT22;4099;52.684;9.918;2022-09-21T06:20:39;6.10;99.90
8114;DHT22;4099;52.684;9.918;2022-09-21T06:25:41;6.30;99.90
8114;DHT22;4099;52.684;9.918;2022-09-21T06:30:43;6.30;99.90
8114;DHT22;4099;52.684;9.918;2022-09-21T06:35:50;6.30;99.90
8114;DHT22;4099;52.684;9.918;2022-09-21T06:40:52;6.30;99.90
8114;DHT22;4099;52.684;9.918;2022-09-21T06:45:55;6.40;99.90
8114;DHT22;4099;52.684;9.918;2022-09-21T06:51:00;6.50;99.90
8114;DHT22;4099;52.684;9.918;2022-09-21T06:56:03;6.80;99.90
8114;DHT22;4099;52.684;9.918;2022-09-21T07:01:06;6.90;99.90
8114;DHT22;4099;52.684;9.918;2022-09-21T07:06:11;6.90;99.90
8114;DHT22;4099;52.684;9.918;2022-09-21T07:11:14;7.10;99.90
8114;DHT22;4099;52.684;9.918;2022-09-21T07:16:16;7.40;99.90
8114;DHT22;4099;52.684;9.918;2022-09-21T07:21:20;7.60;99.90
8114;DHT22;4099;52.684;9.918;2022-09-21T07:26:25;7.80;99.90
8114;DHT22;4099;52.684;9.918;2022-09-21T07:31:26;8.00;99.90
8114;DHT22;4099;52.684;9.918;2022-09-21T07:36:32;8.10;99.90
8114;DHT22;4099;52.684;9.918;2022-09-21T07:41:34;8.40;99.90
8114;DHT22;4099;52.684;9.918;2022-09-21T07:46:36;8.70;99.90
8114;DHT22;4099;52.684;9.918;2022-09-21T07:51:39;9.10;99.90
8114;DHT22;4099;52.684;9.918;2022-09-21T07:56:41;9.50;99.90
8114;DHT22;4099;52.684;9.918;2022-09-21T08:02:06;9.90;99.90
8114;DHT22;4099;52.684;9.918;2022-09-21T08:07:09;10.20;99.90
8114;DHT22;4099;52.684;9.918;2022-09-21T08:12:11;10.60;99.90
8114;DHT22;4099;52.684;9.918;2022-09-21T08:17:13;10.80;99.90
8114;DHT22;4099;52.684;9.918;2022-09-21T08:22:16;10.90;99.90
8114;DHT22;4099;52.684;9.918;2022-09-21T08:27:18;11.50;99.90
8114;DHT22;4099;52.684;9.918;2022-09-21T08:32:20;11.90;99.90
8114;DHT22;4099;52.684;9.918;2022-09-21T08:37:24;12.00;99.90
8114;DHT22;4099;52.684;9.918;2022-09-21T08:42:39;12.30;99.90
8114;DHT22;4099;52.684;9.918;2022-09-21T08:47:44;12.70;99.90
8114;DHT22;4099;52.684;9.918;2022-09-21T08:52:48;12.70;99.90
8114;DHT22;4099;52.684;9.918;2022-09-21T08:57:50;12.60;99.90
8114;DHT22;4099;52.684;9.918;2022-09-21T09:03:08;13.00;99.90
8114;DHT22;4099;52.684;9.918;2022-09-21T09:08:38;13.10;99.90
8114;DHT22;4099;52.684;9.918;2022-09-21T09:14:05;12.90;99.90
8114;DHT22;4099;52.684;9.918;2022-09-21T09:19:17;13.20;99.90
8114;DHT22;4099;52.684;9.918;2022-09-21T09:24:31;13.40;99.90
8114;DHT22;4099;52.684;9.918;2022-09-21T09:29:45;13.50;99.90
8114;DHT22;4099;52.684;9.918;2022-09-21T09:34:54;13.60;99.90
8114;DHT22;4099;52.684;9.918;2022-09-21T09:40:00;13.80;99.90
8114;DHT22;4099;52.684;9.918;2022-09-21T09:45:42;14.10;99.90
8114;DHT22;4099;52.684;9.918;2022-09-21T09:50:52;14.50;99.90
8114;DHT22;4099;52.684;9.918;2022-09-21T09:55:56;14.50;78.00
8114;DHT22;4099;52.684;9.918;2022-09-21T10:00:59;14.50;62.00
8114;DHT22;4099;52.684;9.918;2022-09-21T10:06:01;14.80;90.10
8114;DHT22;4099;52.684;9.918;2022-09-21T10:11:05;14.90;62.60
8114;DHT22;4099;52.684;9.918;2022-09-21T10:16:11;15.10;1.00
8114;DHT22;4099;52.684;9.918;2022-09-21T10:21:17;15.30;43.70
8114;DHT22;4099;52.684;9.918;2022-09-21T10:26:21;15.60;1.00
8114;DHT22;4099;52.684;9.918;2022-09-21T10:31:24;15.60;1.00
8114;DHT22;4099;52.684;9.918;2022-09-21T10:36:29;15.70;1.00
8114;DHT22;4099;52.684;9.918;2022-09-21T10:41:32;15.80;1.00
8114;DHT22;4099;52.684;9.918;2022-09-21T10:46:34;15.90;1.00
8114;DHT22;4099;52.684;9.918;2022-09-21T10:51:36;16.10;1.00
8114;DHT22;4099;52.684;9.918;2022-09-21T10:56:50;16.20;1.00
8114;DHT22;4099;52.684;9.918;2022-09-21T11:01:53;16.60;1.00
8114;DHT22;4099;52.684;9.918;2022-09-21T11:07:02;16.80;1.00
8114;DHT22;4099;52.684;9.918;2022-09-21T11:12:25;17.20;1.00
8114;DHT22;4099;52.684;9.918;2022-09-21T11:17:35;17.40;99.90
8114;DHT22;4099;52.684;9.918;2022-09-21T11:22:41;17.70;1.00
8114;DHT22;4099;52.684;9.918;2022-09-21T11:27:50;18.00;99.90
8114;DHT22;4099;52.684;9.918;2022-09-21T11:33:06;18.20;1.00
8114;DHT22;4099;52.684;9.918;2022-09-21T11:38:19;18.40;99.90
8114;DHT22;4099;52.684;9.918;2022-09-21T11:43:42;18.60;99.90
8114;DHT22;4099;52.684;9.918;2022-09-21T11:49:00;18.30;1.00
8114;DHT22;4099;52.684;9.918;2022-09-21T12:00:07;17.60;99.90
8114;DHT22;4099;52.684;9.918;2022-09-21T12:05:16;17.60;1.00
8114;DHT22;4099;52.684;9.918;2022-09-21T12:10:37;18.60;99.90
8114;DHT22;4099;52.684;9.918;2022-09-21T12:15:46;19.70;99.90
8114;DHT22;4099;52.684;9.918;2022-09-21T12:20:54;20.10;1.00
8114;DHT22;4099;52.684;9.918;2022-09-21T12:26:00;20.70;1.00
8114;DHT22;4099;52.684;9.918;2022-09-21T12:31:19;20.30;99.90
8114;DHT22;4099;52.684;9.918;2022-09-21T12:36:26;20.00;1.00
8114;DHT22;4099;52.684;9.918;2022-09-21T12:41:34;19.20;1.00
8114;DHT22;4099;52.684;9.918;2022-09-21T12:46:44;19.30;1.00
8114;DHT22;4099;52.684;9.918;2022-09-21T12:51:50;18.40;1.00
8114;DHT22;4099;52.684;9.918;2022-09-21T12:57:02;17.50;1.00
8114;DHT22;4099;52.684;9.918;2022-09-21T13:02:16;17.50;99.90
8114;DHT22;4099;52.684;9.918;2022-09-21T13:07:37;18.20;1.00
8114;DHT22;4099;52.684;9.918;2022-09-21T13:12:43;18.00;99.90
8114;DHT22;4099;52.684;9.918;2022-09-21T13:17:57;18.10;1.00
8114;DHT22;4099;52.684;9.918;2022-09-21T13:23:00;18.50;1.00
8114;DHT22;4099;52.684;9.918;2022-09-21T13:28:05;18.60;90.20
8114;DHT22;4099;52.684;9.918;2022-09-21T13:33:32;19.50;99.90
8114;DHT22;4099;52.684;9.918;2022-09-21T13:39:02;19.70;1.00
8114;DHT22;4099;52.684;9.918;2022-09-21T13:44:18;19.70;1.00
8114;DHT22;4099;52.684;9.918;2022-09-21T13:54:47;20.10;86.00
8114;DHT22;4099;52.684;9.918;2022-09-21T14:00:05;20.00;1.00
8114;DHT22;4099;52.684;9.918;2022-09-21T14:05:24;20.00;99.90
8114;DHT22;4099;52.684;9.918;2022-09-21T14:10:30;19.90;16.30
8114;DHT22;4099;52.684;9.918;2022-09-21T14:15:39;19.20;1.00
8114;DHT22;4099;52.684;9.918;2022-09-21T14:21:07;18.50;55.40
8114;DHT22;4099;52.684;9.918;2022-09-21T14:26:29;18.10;1.00
8114;DHT22;4099;52.684;9.918;2022-09-21T14:31:36;17.90;1.00
8114;DHT22;4099;52.684;9.918;2022-09-21T14:36:42;17.80;1.00
8114;DHT22;4099;52.684;9.918;2022-09-21T14:41:47;17.40;1.00
8114;DHT22;4099;52.684;9.918;2022-09-21T14:47:01;17.40;1.00
8114;DHT22;4099;52.684;9.918;2022-09-21T14:52:16;17.30;1.00
8114;DHT22;4099;52.684;9.918;2022-09-21T14:57:32;17.20;1.00
8114;DHT22;4099;52.684;9.918;2022-09-21T15:02:37;17.30;1.00
8114;DHT22;4099;52.684;9.918;2022-09-21T15:07:46;16.90;1.00
8114;DHT22;4099;52.684;9.918;2022-09-21T15:13:21;16.80;99.90
8114;DHT22;4099;52.684;9.918;2022-09-21T15:18:24;16.80;99.90
8114;DHT22;4099;52.684;9.918;2022-09-21T15:23:30;16.60;1.00
8114;DHT22;4099;52.684;9.918;2022-09-21T15:28:35;16.40;1.00
8114;DHT22;4099;52.684;9.918;2022-09-21T15:33:38;16.20;99.90
8114;DHT22;4099;52.684;9.918;2022-09-21T15:38:47;15.90;99.90
8114;DHT22;4099;52.684;9.918;2022-09-21T15:43:49;15.80;1.00
8114;DHT22;4099;52.684;9.918;2022-09-21T15:48:58;15.60;99.90
8114;DHT22;4099;52.684;9.918;2022-09-21T15:54:23;15.70;1.00
8114;DHT22;4099;52.684;9.918;2022-09-21T15:59:29;15.80;99.90
8114;DHT22;4099;52.684;9.918;2022-09-21T16:04:31;15.80;99.90
8114;DHT22;4099;52.684;9.918;2022-09-21T16:09:39;15.60;1.00
8114;DHT22;4099;52.684;9.918;2022-09-21T16:14:46;15.50;1.00
8114;DHT22;4099;52.684;9.918;2022-09-21T16:20:16;15.40;1.00
8114;DHT22;4099;52.684;9.918;2022-09-21T16:25:29;15.40;1.00
8114;DHT22;4099;52.684;9.918;2022-09-21T16:30:42;15.60;1.00
8114;DHT22;4099;52.684;9.918;2022-09-21T16:35:45;15.70;1.00
8114;DHT22;4099;52.684;9.918;2022-09-21T16:40:48;15.50;99.90
8114;DHT22;4099;52.684;9.918;2022-09-21T16:45:51;15.30;99.90
8114;DHT22;4099;52.684;9.918;2022-09-21T16:50:53;14.90;99.90
8114;DHT22;4099;52.684;9.918;2022-09-21T16:55:56;14.60;1.00
8114;DHT22;4099;52.684;9.918;2022-09-21T17:00:58;14.30;1.00
8114;DHT22;4099;52.684;9.918;2022-09-21T17:05:59;14.00;1.00
8114;DHT22;4099;52.684;9.918;2022-09-21T17:11:03;13.50;1.00
8114;DHT22;4099;52.684;9.918;2022-09-21T17:16:05;13.20;1.00
8114;DHT22;4099;52.684;9.918;2022-09-21T17:21:08;12.90;1.10
8114;DHT22;4099;52.684;9.918;2022-09-21T17:26:13;12.70;62.00
8114;DHT22;4099;52.684;9.918;2022-09-21T17:31:17;12.60;99.90
8114;DHT22;4099;52.684;9.918;2022-09-21T17:36:20;12.50;99.90
8114;DHT22;4099;52.684;9.918;2022-09-21T17:41:27;12.50;99.90
8114;DHT22;4099;52.684;9.918;2022-09-21T17:46:38;12.50;99.90
8114;DHT22;4099;52.684;9.918;2022-09-21T17:51:41;12.50;85.90
8114;DHT22;4099;52.684;9.918;2022-09-21T17:57:10;12.40;81.20
8114;DHT22;4099;52.684;9.918;2022-09-21T18:02:20;12.00;99.90
8114;DHT22;4099;52.684;9.918;2022-09-21T18:07:23;11.70;99.90
8114;DHT22;4099;52.684;9.918;2022-09-21T18:12:41;11.40;99.90
8114;DHT22;4099;52.684;9.918;2022-09-21T18:17:59;11.10;99.90
8114;DHT22;4099;52.684;9.918;2022-09-21T18:23:10;11.00;99.90
8114;DHT22;4099;52.684;9.918;2022-09-21T18:28:20;10.80;99.90
8114;DHT22;4099;52.684;9.918;2022-09-21T18:33:27;10.50;99.90
8114;DHT22;4099;52.684;9.918;2022-09-21T18:38:37;10.50;99.90
8114;DHT22;4099;52.684;9.918;2022-09-21T18:43:56;10.50;99.90
8114;DHT22;4099;52.684;9.918;2022-09-21T18:49:03;10.40;99.90
8114;DHT22;4099;52.684;9.918;2022-09-21T18:54:07;10.10;99.90
8114;DHT22;4099;52.684;9.918;2022-09-21T18:59:16;10.00;99.90
8114;DHT22;4099;52.684;9.918;2022-09-21T19:04:18;10.30;99.90
8114;DHT22;4099;52.684;9.918;2022-09-21T19:09:34;9.90;99.90
8114;DHT22;4099;52.684;9.918;2022-09-21T19:14:49;9.80;99.90
8114;DHT22;4099;52.684;9.918;2022-09-21T19:20:03;9.90;99.90
8114;DHT22;4099;52.684;9.918;2022-09-21T19:25:17;10.00;99.90
8114;DHT22;4099;52.684;9.918;2022-09-21T19:30:22;9.90;99.90
8114;DHT22;4099;52.684;9.918;2022-09-21T19:35:26;9.80;99.90
8114;DHT22;4099;52.684;9.918;2022-09-21T19:40:30;9.70;99.90
8114;DHT22;4099;52.684;9.918;2022-09-21T19:45:43;9.60;99.90
8114;DHT22;4099;52.684;9.918;2022-09-21T19:50:50;9.30;99.90
8114;DHT22;4099;52.684;9.918;2022-09-21T19:55:55;9.40;99.90
8114;DHT22;4099;52.684;9.918;2022-09-21T20:01:19;9.40;99.90
8114;DHT22;4099;52.684;9.918;2022-09-21T20:06:25;9.10;99.90
8114;DHT22;4099;52.684;9.918;2022-09-21T20:11:37;9.20;99.90
8114;DHT22;4099;52.684;9.918;2022-09-21T20:16:46;9.40;99.90
8114;DHT22;4099;52.684;9.918;2022-09-21T20:21:53;9.40;99.90
8114;DHT22;4099;52.684;9.918;2022-09-21T20:26:56;9.40;99.90
8114;DHT22;4099;52.684;9.918;2022-09-21T20:31:59;9.10;99.90
8114;DHT22;4099;52.684;9.918;2022-09-21T20:37:05;9.00;99.90
8114;DHT22;4099;52.684;9.918;2022-09-21T20:42:14;8.60;99.90
8114;DHT22;4099;52.684;9.918;2022-09-21T20:47:19;8.10;99.90
8114;DHT22;4099;52.684;9.918;2022-09-21T20:52:21;8.10;99.90
8114;DHT22;4099;52.684;9.918;2022-09-21T20:57:23;8.20;99.90
8114;DHT22;4099;52.684;9.918;2022-09-21T21:02:26;8.50;99.90
8114;DHT22;4099;52.684;9.918;2022-09-21T21:07:28;8.60;99.90
8114;DHT22;4099;52.684;9.918;2022-09-21T21:12:30;8.60;99.90
8114;DHT22;4099;52.684;9.918;2022-09-21T21:17:33;8.30;99.90
8114;DHT22;4099;52.684;9.918;2022-09-21T21:22:35;8.20;99.90
8114;DHT22;4099;52.684;9.918;2022-09-21T21:27:37;7.80;99.90
8114;DHT22;4099;52.684;9.918;2022-09-21T21:32:40;7.50;99.90
8114;DHT22;4099;52.684;9.918;2022-09-21T21:37:42;7.70;99.90
8114;DHT22;4099;52.684;9.918;2022-09-21T21:42:44;7.60;99.90
8114;DHT22;4099;52.684;9.918;2022-09-21T21:47:47;7.50;99.90
8114;DHT22;4099;52.684;9.918;2022-09-21T21:52:49;7.50;99.90
8114;DHT22;4099;52.684;9.918;2022-09-21T21:57:51;7.70;99.90
8114;DHT22;4099;52.684;9.918;2022-09-21T22:02:55;7.70;99.90
8114;DHT22;4099;52.684;9.918;2022-09-21T22:07:57;7.70;99.90
8114;DHT22;4099;52.684;9.918;2022-09-21T22:12:59;7.70;99.90
8114;DHT22;4099;52.684;9.918;2022-09-21T22:18:03;7.50;99.90
8114;DHT22;4099;52.684;9.918;2022-09-21T22:23:05;7.30;99.90
8114;DHT22;4099;52.684;9.918;2022-09-21T22:28:07;7.20;99.90
8114;DHT22;4099;52.684;9.918;2022-09-21T22:33:10;6.90;99.90
8114;DHT22;4099;52.684;9.918;2022-09-21T22:38:11;6.70;99.90
8114;DHT22;4099;52.684;9.918;2022-09-21T22:43:14;6.60;99.90
8114;DHT22;4099;52.684;9.918;2022-09-21T22:48:17;6.50;99.90
8114;DHT22;4099;52.684;9.918;2022-09-21T22:53:22;6.60;99.90
8114;DHT22;4099;52.684;9.918;2022-09-21T22:58:24;6.90;99.90
8114;DHT22;4099;52.684;9.918;2022-09-21T23:03:27;6.90;99.90
8114;DHT22;4099;52.684;9.918;2022-09-21T23:08:29;6.60;99.90
8114;DHT22;4099;52.684;9.918;2022-09-21T23:13:32;6.40;99.90
8114;DHT22;4099;52.684;9.918;2022-09-21T23:18:36;6.50;99.90
8114;DHT22;4099;52.684;9.918;2022-09-21T23:23:38;6.50;99.90
8114;DHT22;4099;52.684;9.918;2022-09-21T23:28:42;6.70;99.90
8114;DHT22;4099;52.684;9.918;2022-09-21T23:33:47;6.60;99.90
8114;DHT22;4099;52.684;9.918;2022-09-21T23:38:50;6.30;99.90
8114;DHT22;4099;52.684;9.918;2022-09-21T23:43:52;6.40;99.90
8114;DHT22;4099;52.684;9.918;2022-09-21T23:48:56;6.60;99.90
8114;DHT22;4099;52.684;9.918;2022-09-21T23:53:58;6.60;99.90
8114;DHT22;4099;52.684;9.918;2022-09-21T23:59:00;6.30;99.90
